Time;durP1;ratioP1;P1;durP2;ratioP2;P2;SDS_P1;SDS_P2;PMS_P1;PMS_P2;Temp;Humidity;BMP_temperature;BMP_pressure;BME280_temperature;BME280_humidity;BME280_pressure;Samples;Min_cycle;Max_cycle;Signal;HPM_P1;HPM_P2
2023/05/26 00:00:06;;;;;;;13.05;3.92;;;;;;;;;;5009781;28;20037;-73
2023/05/26 00:02:32;;;;;;;16.15;3.67;;;;;;;;;;5019489;28;20617;-73
2023/05/26 00:04:59;;;;;;;15.88;4.18;;;;;;;;;;5023321;28;20026;-73
2023/05/26 00:07:24;;;;;;;14.70;3.92;;;;;;;;;;5023295;28;20036;-73
2023/05/26 00:09:50;;;;;;;17.85;4.35;;;;;;;;;;5024563;28;20021;-73
2023/05/26 00:12:16;;;;;;;22.45;4.40;;;;;;;;;;5025537;28;20025;-73
2023/05/26 00:14:42;;;;;;;12.25;3.78;;;;;;;;;;5026986;28;20056;-73
2023/05/26 00:17:07;;;;;;;11.13;3.17;;;;;;;;;;5023923;28;20025;-73
2023/05/26 00:19:35;;;;;;;16.83;4.45;;;;;;;;;;5024185;28;20665;-73
2023/05/26 00:22:01;;;;;;;16.98;4.05;;;;;;;;;;5026996;28;20022;-73
2023/05/26 00:24:26;;;;;;;21.80;5.53;;;;;;;;;;5027240;28;20035;-73
2023/05/26 00:26:52;;;;;;;9.00;3.55;;;;;;;;;;5027132;28;20465;-74
2023/05/26 00:29:17;;;;;;;14.07;4.28;;;;;;;;;;5029257;28;20068;-73
2023/05/26 00:31:43;;;;;;;19.38;4.30;;;;;;;;;;5036728;28;20045;-74
2023/05/26 00:34:08;;;;;;;14.60;4.50;;;;;;;;;;5024572;28;20034;-73
2023/05/26 00:36:33;;;;;;;18.27;4.38;;;;;;;;;;5020855;28;20128;-73
2023/05/26 00:38:59;;;;;;;15.82;4.47;;;;;;;;;;5023042;28;20041;-73
2023/05/26 00:41:25;;;;;;;11.85;3.88;;;;;;;;;;5025189;28;20072;-73
2023/05/26 00:43:51;;;;;;;18.67;4.25;;;;;;;;;;5026793;28;20025;-73
2023/05/26 00:46:16;;;;;;;19.92;4.13;;;;;;;;;;5025968;28;20431;-73
2023/05/26 00:48:42;;;;;;;20.38;4.60;;;;;;;;;;5025666;28;20033;-74
2023/05/26 00:51:08;;;;;;;16.05;4.55;;;;;;;;;;5026316;28;20625;-73
2023/05/26 00:53:38;;;;;;;14.50;4.03;;;;;;;;;;5025278;28;20030;-73
2023/05/26 00:56:03;;;;;;;15.30;3.90;;;;;;;;;;5026056;28;20041;-73
2023/05/26 00:58:29;;;;;;;19.52;4.47;;;;;;;;;;5007176;28;20026;-73
2023/05/26 01:00:54;;;;;;;22.27;5.05;;;;;;;;;;5020495;28;20067;-73
2023/05/26 01:03:19;;;;;;;18.83;4.00;;;;;;;;;;5020241;28;20037;-73
2023/05/26 01:05:45;;;;;;;19.27;5.43;;;;;;;;;;5020266;28;20034;-73
2023/05/26 01:08:10;;;;;;;15.00;3.72;;;;;;;;;;5025508;28;20072;-74
2023/05/26 01:10:35;;;;;;;17.35;4.30;;;;;;;;;;5026084;28;20034;-73
2023/05/26 01:13:20;;;;;;;20.42;5.47;;;;;;;;;;5016957;28;20025;-73
2023/05/26 01:15:51;;;;;;;18.58;4.85;;;;;;;;;;5017134;28;20547;-73
2023/05/26 01:18:30;;;;;;;15.30;4.35;;;;;;;;;;5022613;28;20025;-73
2023/05/26 01:21:05;;;;;;;15.93;3.70;;;;;;;;;;5025247;28;20599;-73
2023/05/26 01:23:52;;;;;;;18.45;4.40;;;;;;;;;;5025120;28;20540;-73
2023/05/26 01:26:43;;;;;;;21.00;4.88;;;;;;;;;;5023882;28;20065;-73
2023/05/26 01:29:14;;;;;;;11.70;3.90;;;;;;;;;;5025787;28;20069;-73
2023/05/26 01:31:40;;;;;;;21.38;6.13;;;;;;;;;;5024105;28;20068;-73
2023/05/26 01:34:06;;;;;;;16.58;4.10;;;;;;;;;;5026113;28;20247;-73
2023/05/26 01:36:32;;;;;;;12.30;4.47;;;;;;;;;;5025550;28;20587;-73
2023/05/26 01:38:58;;;;;;;14.27;4.22;;;;;;;;;;5021077;28;20033;-73
2023/05/26 01:41:37;;;;;;;15.05;4.03;;;;;;;;;;5014140;28;20549;-73
2023/05/26 01:44:08;;;;;;;21.83;4.53;;;;;;;;;;5021559;28;20033;-73
2023/05/26 01:46:45;;;;;;;18.58;4.32;;;;;;;;;;5016891;28;20828;-73
2023/05/26 01:49:13;;;;;;;20.08;4.35;;;;;;;;;;5021493;28;20040;-73
2023/05/26 01:51:44;;;;;;;19.02;4.63;;;;;;;;;;5018020;28;20753;-72
2023/05/26 01:54:11;;;;;;;16.98;3.88;;;;;;;;;;5016635;28;20064;-72
2023/05/26 01:56:37;;;;;;;21.83;4.35;;;;;;;;;;5033460;28;20566;-73
2023/05/26 01:59:03;;;;;;;18.23;4.18;;;;;;;;;;5018368;28;20606;-73
2023/05/26 02:01:28;;;;;;;17.83;4.75;;;;;;;;;;5015296;28;20076;-73
2023/05/26 02:03:54;;;;;;;19.00;4.53;;;;;;;;;;5025219;28;20037;-73
2023/05/26 02:06:21;;;;;;;19.77;4.22;;;;;;;;;;5023559;28;20080;-73
2023/05/26 02:08:47;;;;;;;15.90;5.10;;;;;;;;;;5024992;28;20466;-73
2023/05/26 02:11:12;;;;;;;16.25;4.32;;;;;;;;;;5024011;28;20468;-73
2023/05/26 02:13:38;;;;;;;16.15;4.55;;;;;;;;;;5023831;28;20048;-73
2023/05/26 02:16:03;;;;;;;21.67;4.07;;;;;;;;;;5008680;28;20026;-72
2023/05/26 02:18:28;;;;;;;18.25;4.45;;;;;;;;;;5023290;28;20033;-73
2023/05/26 02:20:54;;;;;;;16.85;4.57;;;;;;;;;;5023650;28;20048;-72
2023/05/26 02:23:19;;;;;;;15.38;4.07;;;;;;;;;;5023061;28;20471;-73
2023/05/26 02:25:45;;;;;;;18.20;4.45;;;;;;;;;;5022894;28;20463;-73
2023/05/26 02:28:10;;;;;;;18.63;4.20;;;;;;;;;;5022796;28;20029;-73
2023/05/26 02:30:35;;;;;;;29.92;4.80;;;;;;;;;;5022757;28;20045;-73
2023/05/26 02:33:01;;;;;;;24.67;4.93;;;;;;;;;;5018658;28;20045;-73
2023/05/26 02:35:26;;;;;;;22.17;5.20;;;;;;;;;;5023949;28;20045;-73
2023/05/26 02:37:51;;;;;;;19.73;4.70;;;;;;;;;;5023321;28;20033;-73
2023/05/26 02:40:16;;;;;;;21.50;4.65;;;;;;;;;;5012856;28;20037;-73
2023/05/26 02:42:42;;;;;;;19.27;4.47;;;;;;;;;;5022976;28;20029;-73
2023/05/26 02:45:08;;;;;;;11.80;4.28;;;;;;;;;;5016904;28;20092;-73
2023/05/26 02:47:33;;;;;;;15.30;4.13;;;;;;;;;;5022601;28;20037;-73
2023/05/26 02:49:59;;;;;;;21.02;4.30;;;;;;;;;;5023946;28;20602;-73
2023/05/26 02:52:25;;;;;;;13.27;4.00;;;;;;;;;;5023048;28;20029;-73
2023/05/26 02:54:50;;;;;;;17.95;4.40;;;;;;;;;;5024460;28;20411;-73
2023/05/26 02:57:16;;;;;;;16.63;5.25;;;;;;;;;;5024011;28;20033;-73
2023/05/26 02:59:41;;;;;;;18.58;3.97;;;;;;;;;;5019503;28;20096;-73
2023/05/26 03:02:06;;;;;;;16.88;4.40;;;;;;;;;;5020002;28;20037;-72
2023/05/26 03:04:32;;;;;;;19.00;4.70;;;;;;;;;;5021659;28;20471;-73
2023/05/26 03:06:57;;;;;;;21.42;4.72;;;;;;;;;;5022902;28;20029;-73
2023/05/26 03:09:22;;;;;;;16.17;3.90;;;;;;;;;;5023860;28;20507;-73
2023/05/26 03:11:48;;;;;;;15.57;4.47;;;;;;;;;;5024710;28;20030;-73
2023/05/26 03:14:13;;;;;;;17.52;3.85;;;;;;;;;;5025700;28;20517;-73
2023/05/26 03:16:38;;;;;;;14.52;4.53;;;;;;;;;;5031181;28;20391;-73
2023/05/26 03:19:04;;;;;;;10.07;3.97;;;;;;;;;;5036992;28;20368;-73
2023/05/26 03:21:29;;;;;;;19.77;5.03;;;;;;;;;;5025478;28;20518;-73
2023/05/26 03:23:55;;;;;;;16.02;4.20;;;;;;;;;;5022395;28;20107;-73
2023/05/26 03:26:22;;;;;;;16.55;4.05;;;;;;;;;;5021771;28;20034;-73
2023/05/26 03:28:47;;;;;;;20.83;4.68;;;;;;;;;;5017743;28;20030;-73
2023/05/26 03:31:12;;;;;;;10.70;3.65;;;;;;;;;;5014756;28;20044;-72
2023/05/26 03:33:38;;;;;;;17.83;4.40;;;;;;;;;;5024176;28;20487;-73
2023/05/26 03:36:03;;;;;;;17.77;4.45;;;;;;;;;;5022241;28;20118;-73
2023/05/26 03:38:29;;;;;;;14.82;4.75;;;;;;;;;;5018356;28;20030;-73
2023/05/26 03:40:54;;;;;;;14.02;3.97;;;;;;;;;;5023680;28;20412;-73
2023/05/26 03:43:19;;;;;;;20.48;4.55;;;;;;;;;;5022444;28;20171;-73
2023/05/26 03:45:45;;;;;;;16.50;3.88;;;;;;;;;;5018104;28;20498;-73
2023/05/26 03:48:12;;;;;;;16.13;4.50;;;;;;;;;;5019101;28;20132;-73
2023/05/26 03:50:38;;;;;;;21.08;4.07;;;;;;;;;;5014274;28;20084;-73
2023/05/26 03:53:04;;;;;;;15.15;3.95;;;;;;;;;;5024921;28;20030;-73
2023/05/26 03:55:29;;;;;;;11.73;3.53;;;;;;;;;;5027384;28;20499;-73
2023/05/26 03:57:54;;;;;;;15.13;3.97;;;;;;;;;;5027490;28;20964;-73
2023/05/26 04:00:20;;;;;;;21.45;4.10;;;;;;;;;;5027098;28;20525;-73
2023/05/26 04:02:45;;;;;;;18.85;4.45;;;;;;;;;;5026591;28;20531;-73
2023/05/26 04:05:10;;;;;;;18.00;4.28;;;;;;;;;;5027372;28;20413;-73
2023/05/26 04:07:36;;;;;;;14.63;4.63;;;;;;;;;;5026903;28;20516;-73
2023/05/26 04:10:01;;;;;;;8.32;3.58;;;;;;;;;;5025860;28;20560;-73
2023/05/26 04:12:27;;;;;;;17.25;3.85;;;;;;;;;;5021797;28;20433;-73
2023/05/26 04:14:52;;;;;;;13.15;3.50;;;;;;;;;;5027209;28;20433;-73
2023/05/26 04:17:17;;;;;;;23.77;4.97;;;;;;;;;;5026540;28;20475;-73
2023/05/26 04:19:43;;;;;;;18.35;4.07;;;;;;;;;;5026874;28;20482;-73
2023/05/26 04:22:08;;;;;;;17.50;3.50;;;;;;;;;;5026309;28;20104;-73
2023/05/26 04:24:33;;;;;;;12.23;3.78;;;;;;;;;;5026886;28;20047;-73
2023/05/26 04:26:59;;;;;;;17.40;3.95;;;;;;;;;;5026466;28;20036;-73
2023/05/26 04:29:24;;;;;;;11.05;3.40;;;;;;;;;;5025822;28;20052;-73
2023/05/26 04:31:50;;;;;;;10.35;3.28;;;;;;;;;;5025184;28;20025;-73
2023/05/26 04:34:21;;;;;;;13.98;3.55;;;;;;;;;;5023690;28;20542;-73
2023/05/26 04:36:48;;;;;;;17.58;3.90;;;;;;;;;;5027310;28;20075;-73
2023/05/26 04:39:14;;;;;;;16.58;3.58;;;;;;;;;;5026409;28;20038;-73
2023/05/26 04:41:41;;;;;;;22.38;4.35;;;;;;;;;;5028857;28;20119;-73
2023/05/26 04:44:07;;;;;;;17.25;4.38;;;;;;;;;;5026031;28;20061;-73
2023/05/26 04:46:32;;;;;;;22.55;4.32;;;;;;;;;;5026071;28;20072;-73
2023/05/26 04:48:57;;;;;;;14.18;3.65;;;;;;;;;;5026014;28;20533;-72
2023/05/26 04:51:23;;;;;;;16.63;3.42;;;;;;;;;;5024904;28;20495;-73
2023/05/26 04:53:50;;;;;;;16.65;4.38;;;;;;;;;;5019759;28;20044;-73
2023/05/26 04:56:15;;;;;;;19.10;4.57;;;;;;;;;;5019488;28;20430;-73
2023/05/26 04:58:41;;;;;;;21.25;3.33;;;;;;;;;;5011893;28;20555;-73
2023/05/26 05:01:06;;;;;;;28.90;4.30;;;;;;;;;;5025333;28;20068;-73
2023/05/26 05:03:33;;;;;;;22.75;3.83;;;;;;;;;;5026542;28;20044;-73
2023/05/26 05:05:59;;;;;;;22.15;4.38;;;;;;;;;;5021002;28;20610;-73
2023/05/26 05:08:24;;;;;;;12.65;3.58;;;;;;;;;;5020804;28;20041;-74
2023/05/26 05:10:50;;;;;;;17.90;3.85;;;;;;;;;;5024596;28;20034;-73
2023/05/26 05:13:15;;;;;;;12.90;3.80;;;;;;;;;;5025557;28;20518;-73
2023/05/26 05:15:40;;;;;;;16.02;4.03;;;;;;;;;;5014901;28;21669;-74
2023/05/26 05:18:06;;;;;;;17.92;4.60;;;;;;;;;;5020182;28;20037;-73
2023/05/26 05:20:31;;;;;;;21.35;4.25;;;;;;;;;;5025226;28;20149;-73
2023/05/26 05:22:56;;;;;;;15.80;4.25;;;;;;;;;;5025552;28;20033;-73
2023/05/26 05:25:22;;;;;;;21.05;4.13;;;;;;;;;;5025749;28;20025;-73
2023/05/26 05:27:47;;;;;;;20.15;4.07;;;;;;;;;;5025652;28;20029;-73
2023/05/26 05:30:12;;;;;;;18.15;4.43;;;;;;;;;;5025464;28;20577;-74
2023/05/26 05:32:38;;;;;;;20.65;4.07;;;;;;;;;;5026511;28;20060;-73
2023/05/26 05:35:04;;;;;;;16.13;4.13;;;;;;;;;;5025275;28;20033;-74
2023/05/26 05:37:30;;;;;;;13.05;4.05;;;;;;;;;;5025245;28;20032;-73
2023/05/26 05:39:55;;;;;;;12.45;3.65;;;;;;;;;;5017593;28;20033;-74
2023/05/26 05:42:24;;;;;;;13.52;4.45;;;;;;;;;;5021202;28;20711;-74
2023/05/26 05:44:50;;;;;;;17.77;3.92;;;;;;;;;;5024959;28;20037;-73
2023/05/26 05:47:15;;;;;;;10.55;3.60;;;;;;;;;;5024614;28;20052;-74
2023/05/26 05:49:40;;;;;;;14.60;3.95;;;;;;;;;;5019902;28;21368;-73
2023/05/26 05:52:06;;;;;;;18.10;4.22;;;;;;;;;;5019059;28;20674;-73
2023/05/26 05:54:31;;;;;;;21.13;4.43;;;;;;;;;;5019536;28;20049;-73
2023/05/26 05:56:56;;;;;;;17.63;4.57;;;;;;;;;;5025594;28;20061;-73
2023/05/26 05:59:22;;;;;;;19.55;4.80;;;;;;;;;;5024704;28;20141;-73
2023/05/26 06:01:47;;;;;;;19.88;3.92;;;;;;;;;;5025197;28;20136;-73
2023/05/26 06:04:13;;;;;;;13.32;4.70;;;;;;;;;;5029054;28;20049;-73
2023/05/26 06:06:38;;;;;;;15.00;4.07;;;;;;;;;;5022323;28;20029;-74
2023/05/26 06:09:03;;;;;;;25.23;4.38;;;;;;;;;;5025285;28;20041;-74
2023/05/26 06:11:29;;;;;;;18.67;4.45;;;;;;;;;;5024638;28;20119;-74
2023/05/26 06:13:54;;;;;;;26.55;5.13;;;;;;;;;;5024382;28;20045;-73
2023/05/26 06:16:20;;;;;;;16.38;5.00;;;;;;;;;;5024211;28;20025;-73
2023/05/26 06:18:45;;;;;;;20.02;4.45;;;;;;;;;;5024839;28;20033;-74
2023/05/26 06:21:10;;;;;;;18.17;4.50;;;;;;;;;;5021471;28;20549;-74
2023/05/26 06:23:36;;;;;;;21.02;4.75;;;;;;;;;;5024285;28;20040;-74
2023/05/26 06:26:02;;;;;;;17.50;4.55;;;;;;;;;;5023190;28;20054;-74
2023/05/26 06:28:27;;;;;;;18.73;4.72;;;;;;;;;;5018620;28;20029;-73
2023/05/26 06:30:52;;;;;;;14.23;4.38;;;;;;;;;;5019737;28;20024;-74
2023/05/26 06:33:18;;;;;;;18.17;4.63;;;;;;;;;;5024252;28;20427;-74
2023/05/26 06:35:43;;;;;;;16.10;4.97;;;;;;;;;;5023984;28;20498;-73
2023/05/26 06:38:08;;;;;;;23.17;4.50;;;;;;;;;;5020264;28;20025;-74
2023/05/26 06:40:34;;;;;;;25.35;4.90;;;;;;;;;;5022646;28;20466;-74
2023/05/26 06:42:59;;;;;;;19.33;5.00;;;;;;;;;;5023799;28;20048;-74
2023/05/26 06:45:24;;;;;;;18.33;5.13;;;;;;;;;;5022169;28;20045;-74
2023/05/26 06:47:50;;;;;;;18.17;5.10;;;;;;;;;;5020399;28;20036;-74
2023/05/26 06:50:15;;;;;;;21.98;5.40;;;;;;;;;;5023930;28;20052;-74
2023/05/26 06:52:40;;;;;;;21.77;6.00;;;;;;;;;;5023652;28;20044;-74
2023/05/26 06:55:06;;;;;;;19.80;4.75;;;;;;;;;;5024047;28;20498;-74
2023/05/26 06:57:32;;;;;;;23.85;5.63;;;;;;;;;;5023670;28;20380;-73
2023/05/26 06:59:57;;;;;;;14.27;4.60;;;;;;;;;;5023883;28;20511;-73
2023/05/26 07:02:22;;;;;;;23.58;5.22;;;;;;;;;;5013794;28;20042;-73
2023/05/26 07:04:48;;;;;;;18.80;5.65;;;;;;;;;;5012392;28;20461;-74
2023/05/26 07:07:13;;;;;;;26.85;5.30;;;;;;;;;;5022080;28;20461;-73
2023/05/26 07:09:38;;;;;;;20.48;4.93;;;;;;;;;;5016704;28;20104;-73
2023/05/26 07:12:04;;;;;;;23.75;5.90;;;;;;;;;;5019078;28;20468;-73
2023/05/26 07:14:29;;;;;;;19.20;5.18;;;;;;;;;;5014798;28;20407;-73
2023/05/26 07:16:55;;;;;;;17.17;5.43;;;;;;;;;;5017640;28;20034;-73
2023/05/26 07:19:20;;;;;;;27.65;6.22;;;;;;;;;;5018119;28;20077;-73
2023/05/26 07:21:45;;;;;;;21.23;5.22;;;;;;;;;;5020365;28;20033;-73
2023/05/26 07:24:10;;;;;;;20.95;5.47;;;;;;;;;;5031291;28;20040;-73
2023/05/26 07:26:36;;;;;;;22.00;5.13;;;;;;;;;;5027802;28;20076;-73
2023/05/26 07:29:02;;;;;;;18.60;5.55;;;;;;;;;;5013815;28;20049;-74
2023/05/26 07:31:27;;;;;;;21.88;5.95;;;;;;;;;;5022153;28;20069;-73
2023/05/26 07:33:52;;;;;;;22.48;6.50;;;;;;;;;;5019054;28;20122;-73
2023/05/26 07:36:18;;;;;;;21.00;6.38;;;;;;;;;;5021100;28;20450;-73
2023/05/26 07:38:43;;;;;;;21.55;5.50;;;;;;;;;;5021868;28;20088;-73
2023/05/26 07:41:08;;;;;;;20.27;5.80;;;;;;;;;;5021387;28;20037;-73
2023/05/26 07:43:34;;;;;;;21.35;5.55;;;;;;;;;;5016963;28;20115;-73
2023/05/26 07:45:59;;;;;;;20.50;4.88;;;;;;;;;;5021099;28;20024;-73
2023/05/26 07:48:25;;;;;;;17.80;6.00;;;;;;;;;;5012817;28;20124;-73
2023/05/26 07:50:51;;;;;;;18.10;4.80;;;;;;;;;;5020970;28;20503;-73
2023/05/26 07:53:16;;;;;;;19.27;5.90;;;;;;;;;;5012806;28;20084;-73
2023/05/26 07:55:41;;;;;;;20.23;5.75;;;;;;;;;;5016337;28;20462;-73
2023/05/26 07:58:10;;;;;;;28.85;5.15;;;;;;;;;;5022210;28;20037;-73
2023/05/26 08:00:35;;;;;;;23.05;5.47;;;;;;;;;;5016212;28;20053;-73
2023/05/26 08:03:01;;;;;;;20.38;5.53;;;;;;;;;;5014116;28;20045;-73
2023/05/26 08:05:26;;;;;;;18.55;4.60;;;;;;;;;;5019322;28;20041;-73
2023/05/26 08:07:52;;;;;;;21.38;4.88;;;;;;;;;;5019523;28;20613;-73
2023/05/26 08:10:17;;;;;;;19.83;5.65;;;;;;;;;;5018343;28;20076;-73
2023/05/26 08:12:43;;;;;;;23.85;4.72;;;;;;;;;;5017784;28;20171;-74
2023/05/26 08:15:14;;;;;;;16.90;4.35;;;;;;;;;;5016700;28;20049;-73
2023/05/26 08:17:40;;;;;;;14.55;4.22;;;;;;;;;;5020797;28;20069;-73
2023/05/26 08:20:06;;;;;;;16.50;3.58;;;;;;;;;;5015565;28;20038;-74
2023/05/26 08:22:32;;;;;;;17.38;5.35;;;;;;;;;;5013827;28;21511;-73
2023/05/26 08:24:58;;;;;;;17.02;4.03;;;;;;;;;;5021397;28;20018;-73
2023/05/26 08:27:23;;;;;;;15.23;3.65;;;;;;;;;;5017572;28;20068;-73
2023/05/26 08:29:49;;;;;;;22.73;4.30;;;;;;;;;;5016539;28;20037;-74
2023/05/26 08:32:14;;;;;;;21.83;4.30;;;;;;;;;;5015847;28;20045;-73
2023/05/26 08:34:42;;;;;;;16.92;3.92;;;;;;;;;;5014181;28;20060;-73
2023/05/26 08:37:08;;;;;;;18.85;4.43;;;;;;;;;;5018017;28;20036;-73
2023/05/26 08:39:33;;;;;;;20.75;4.97;;;;;;;;;;5021759;28;20045;-73
2023/05/26 08:42:05;;;;;;;21.27;4.95;;;;;;;;;;5027213;28;20539;-73
2023/05/26 08:44:31;;;;;;;17.73;5.38;;;;;;;;;;5029729;28;20044;-73
2023/05/26 08:46:58;;;;;;;16.27;4.40;;;;;;;;;;5038167;28;20045;-74
2023/05/26 08:49:24;;;;;;;15.05;4.38;;;;;;;;;;5030040;28;20613;-73
2023/05/26 08:52:02;;;;;;;15.23;4.18;;;;;;;;;;5023250;28;20032;-73
2023/05/26 08:54:28;;;;;;;17.42;3.60;;;;;;;;;;5020179;28;20060;-73
2023/05/26 08:56:54;;;;;;;21.33;4.30;;;;;;;;;;5014336;28;20518;-73
2023/05/26 08:59:20;;;;;;;19.30;4.80;;;;;;;;;;5014232;28;20071;-73
2023/05/26 09:01:45;;;;;;;19.25;3.85;;;;;;;;;;5015525;28;20084;-73
2023/05/26 09:04:11;;;;;;;15.98;4.28;;;;;;;;;;5010623;28;20135;-73
2023/05/26 09:06:42;;;;;;;14.13;4.30;;;;;;;;;;5009717;28;20033;-73
2023/05/26 09:09:07;;;;;;;16.85;4.38;;;;;;;;;;5020520;28;20478;-73
2023/05/26 09:11:40;;;;;;;13.63;3.72;;;;;;;;;;5014334;28;20120;-73
2023/05/26 09:14:05;;;;;;;13.13;3.88;;;;;;;;;;5020249;28;20048;-73
2023/05/26 09:16:30;;;;;;;20.13;4.90;;;;;;;;;;5022749;28;20029;-73
2023/05/26 09:19:01;;;;;;;16.77;4.22;;;;;;;;;;5014840;28;20041;-74
2023/05/26 09:21:28;;;;;;;21.02;4.47;;;;;;;;;;5022497;28;20518;-73
2023/05/26 09:24:03;;;;;;;23.27;4.47;;;;;;;;;;5020706;28;20121;-74
2023/05/26 09:26:37;;;;;;;12.57;3.78;;;;;;;;;;5017850;28;20534;-73
2023/05/26 09:29:05;;;;;;;16.40;3.65;;;;;;;;;;5014439;28;20083;-73
2023/05/26 09:32:01;;;;;;;13.18;3.75;;;;;;;;;;5018151;28;20037;-73
2023/05/26 09:34:27;;;;;;;20.80;4.47;;;;;;;;;;5016738;28;20128;-73
2023/05/26 09:36:53;;;;;;;14.90;4.40;;;;;;;;;;5018127;28;20110;-73
2023/05/26 09:39:18;;;;;;;15.50;4.13;;;;;;;;;;5015195;28;20118;-73
2023/05/26 09:41:45;;;;;;;14.70;3.67;;;;;;;;;;5015030;28;20048;-73
2023/05/26 09:44:15;;;;;;;20.98;4.20;;;;;;;;;;5018926;28;20062;-73
2023/05/26 09:46:42;;;;;;;15.60;4.28;;;;;;;;;;5017909;28;20542;-73
2023/05/26 09:49:12;;;;;;;22.25;3.90;;;;;;;;;;5015766;28;20037;-73
2023/05/26 09:51:38;;;;;;;14.93;4.13;;;;;;;;;;5017300;28;20522;-73
2023/05/26 09:54:03;;;;;;;17.02;3.70;;;;;;;;;;5021190;28;20575;-73
2023/05/26 09:56:33;;;;;;;14.65;4.22;;;;;;;;;;5017849;28;20037;-73
2023/05/26 09:59:02;;;;;;;15.18;3.40;;;;;;;;;;5021267;28;20048;-73
2023/05/26 10:01:29;;;;;;;17.27;3.88;;;;;;;;;;5016649;28;20049;-73
2023/05/26 10:03:55;;;;;;;17.38;4.65;;;;;;;;;;5015326;28;20022;-73
2023/05/26 10:06:21;;;;;;;15.80;3.92;;;;;;;;;;5024075;28;20060;-73
2023/05/26 10:08:52;;;;;;;13.63;4.13;;;;;;;;;;5030239;28;20095;-73
2023/05/26 10:11:20;;;;;;;13.75;3.90;;;;;;;;;;5015058;28;20502;-73
2023/05/26 10:13:46;;;;;;;19.40;3.72;;;;;;;;;;5012242;28;20051;-73
2023/05/26 10:16:11;;;;;;;12.55;3.78;;;;;;;;;;5014596;28;20171;-73
2023/05/26 10:18:36;;;;;;;17.98;4.00;;;;;;;;;;5015451;28;20428;-73
2023/05/26 10:21:06;;;;;;;14.57;3.80;;;;;;;;;;5014793;28;20160;-73
2023/05/26 10:24:10;;;;;;;18.10;3.78;;;;;;;;;;5019734;28;20072;-72
2023/05/26 10:26:58;;;;;;;13.82;4.10;;;;;;;;;;5011986;28;20042;-73
2023/05/26 10:29:32;;;;;;;15.02;3.53;;;;;;;;;;5014803;28;20048;-73
2023/05/26 10:31:58;;;;;;;14.70;3.50;;;;;;;;;;5016735;28;20141;-73
2023/05/26 10:34:38;;;;;;;15.52;3.45;;;;;;;;;;5016946;28;20104;-73
2023/05/26 10:37:13;;;;;;;22.13;3.88;;;;;;;;;;5012222;28;20389;-73
2023/05/26 10:39:40;;;;;;;12.30;3.33;;;;;;;;;;5015516;28;20059;-73
2023/05/26 10:42:19;;;;;;;17.83;3.30;;;;;;;;;;5017133;28;20041;-73
2023/05/26 10:44:46;;;;;;;16.60;4.10;;;;;;;;;;5016427;28;20091;-73
2023/05/26 10:47:14;;;;;;;17.05;3.83;;;;;;;;;;5013641;28;20057;-73
2023/05/26 10:49:39;;;;;;;15.60;3.10;;;;;;;;;;5011485;28;20061;-73
2023/05/26 10:52:13;;;;;;;13.32;3.72;;;;;;;;;;5015579;28;20116;-73
2023/05/26 10:54:40;;;;;;;15.27;4.30;;;;;;;;;;5011210;28;20063;-73
2023/05/26 10:57:06;;;;;;;17.40;3.90;;;;;;;;;;5014351;28;20056;-73
2023/05/26 10:59:35;;;;;;;18.05;3.78;;;;;;;;;;5018339;28;20395;-73
2023/05/26 11:02:04;;;;;;;16.02;3.95;;;;;;;;;;5012833;28;20554;-73
2023/05/26 11:04:47;;;;;;;19.45;4.00;;;;;;;;;;5017765;28;20075;-73
2023/05/26 11:07:26;;;;;;;11.15;3.15;;;;;;;;;;5025323;28;20037;-73
2023/05/26 11:10:05;;;;;;;15.18;3.95;;;;;;;;;;5012998;28;20025;-74
2023/05/26 11:12:47;;;;;;;15.98;3.53;;;;;;;;;;5013408;28;20046;-73
2023/05/26 11:15:29;;;;;;;17.98;3.85;;;;;;;;;;5013528;28;20064;-74
2023/05/26 11:18:03;;;;;;;18.33;4.10;;;;;;;;;;5008911;28;20373;-73
2023/05/26 11:20:29;;;;;;;11.93;3.53;;;;;;;;;;5006228;28;20053;-73
2023/05/26 11:22:56;;;;;;;9.65;2.95;;;;;;;;;;5022378;28;20047;-73
2023/05/26 11:25:21;;;;;;;14.77;3.90;;;;;;;;;;5018023;28;20037;-73
2023/05/26 11:27:48;;;;;;;12.88;3.03;;;;;;;;;;5019300;28;20018;-73
2023/05/26 11:30:14;;;;;;;17.63;3.90;;;;;;;;;;5028522;28;20033;-73
2023/05/26 11:32:50;;;;;;;12.75;3.85;;;;;;;;;;5028166;28;20029;-73
2023/05/26 11:35:26;;;;;;;14.18;3.15;;;;;;;;;;5015126;28;20025;-73
2023/05/26 11:37:52;;;;;;;15.73;3.72;;;;;;;;;;5010597;28;20143;-73
2023/05/26 11:40:18;;;;;;;16.05;3.22;;;;;;;;;;5016785;28;20037;-74
2023/05/26 11:42:45;;;;;;;16.67;4.53;;;;;;;;;;5012393;28;20033;-73
2023/05/26 11:45:10;;;;;;;13.95;3.20;;;;;;;;;;5012929;28;20072;-73
2023/05/26 11:47:36;;;;;;;16.52;3.42;;;;;;;;;;5013535;28;20120;-73
2023/05/26 11:50:09;;;;;;;11.80;3.42;;;;;;;;;;5016815;28;20034;-73
2023/05/26 11:52:40;;;;;;;;;;;;;;;;;;5019386;28;20088;-73
2023/05/26 11:55:06;;;;;;;14.45;3.30;;;;;;;;;;5022250;28;20385;-73
2023/05/26 11:57:34;;;;;;;13.10;2.97;;;;;;;;;;5023414;28;20029;-73
2023/05/26 11:59:59;;;;;;;12.70;2.80;;;;;;;;;;5022655;28;20030;-73
2023/05/26 12:02:25;;;;;;;11.20;3.00;;;;;;;;;;5009055;28;20042;-73
2023/05/26 12:04:50;;;;;;;13.63;3.42;;;;;;;;;;5006962;28;20034;-73
2023/05/26 12:07:30;;;;;;;13.18;3.45;;;;;;;;;;5025602;28;20369;-73
2023/05/26 12:10:27;;;;;;;12.23;3.28;;;;;;;;;;5027286;28;20487;-74
2023/05/26 12:12:52;;;;;;;17.42;3.78;;;;;;;;;;5026643;28;20760;-73
2023/05/26 12:15:19;;;;;;;16.55;3.05;;;;;;;;;;5021418;28;20040;-73
2023/05/26 12:17:45;;;;;;;12.73;3.03;;;;;;;;;;5018491;28;20116;-73
2023/05/26 12:20:14;;;;;;;13.90;2.97;;;;;;;;;;5012765;28;20038;-73
2023/05/26 12:22:40;;;;;;;9.20;3.08;;;;;;;;;;5018481;28;20059;-73
2023/05/26 12:25:06;;;;;;;14.38;3.33;;;;;;;;;;5019822;28;20036;-73
2023/05/26 12:27:36;;;;;;;15.52;3.30;;;;;;;;;;5020271;28;20034;-73
2023/05/26 12:30:25;;;;;;;15.20;3.35;;;;;;;;;;5017822;28;20037;-73
2023/05/26 12:32:50;;;;;;;10.85;3.40;;;;;;;;;;5012815;28;20418;-74
2023/05/26 12:35:16;;;;;;;15.02;3.65;;;;;;;;;;5019965;28;20584;-73
2023/05/26 12:37:42;;;;;;;9.25;3.08;;;;;;;;;;5015306;28;20088;-73
2023/05/26 12:40:08;;;;;;;13.48;3.22;;;;;;;;;;5015957;28;20522;-73
2023/05/26 12:42:35;;;;;;;7.60;2.60;;;;;;;;;;5016118;28;20044;-73
2023/05/26 12:45:00;;;;;;;9.95;2.70;;;;;;;;;;5016919;28;20475;-73
2023/05/26 12:47:26;;;;;;;11.90;3.03;;;;;;;;;;5021961;28;20519;-73
2023/05/26 12:49:51;;;;;;;11.68;2.72;;;;;;;;;;5023638;28;20044;-73
2023/05/26 12:52:16;;;;;;;21.80;3.55;;;;;;;;;;5026316;28;20033;-73
2023/05/26 12:54:42;;;;;;;13.48;3.13;;;;;;;;;;5021629;28;20079;-73
2023/05/26 12:57:08;;;;;;;9.30;3.03;;;;;;;;;;5020567;28;20698;-73
2023/05/26 12:59:34;;;;;;;17.67;3.40;;;;;;;;;;5017907;28;20059;-73
2023/05/26 13:02:00;;;;;;;9.88;2.92;;;;;;;;;;5020578;28;20530;-73
2023/05/26 13:04:26;;;;;;;9.00;2.92;;;;;;;;;;5020705;28;20559;-73
2023/05/26 13:06:52;;;;;;;8.52;3.20;;;;;;;;;;5020904;28;20059;-73
2023/05/26 13:09:18;;;;;;;8.25;2.80;;;;;;;;;;5015167;28;20117;-73
2023/05/26 13:11:44;;;;;;;11.82;3.72;;;;;;;;;;5015953;28;20034;-73
2023/05/26 13:14:12;;;;;;;9.80;2.80;;;;;;;;;;5021555;28;20037;-73
2023/05/26 13:16:38;;;;;;;9.88;3.03;;;;;;;;;;5022570;28;20067;-73
2023/05/26 13:19:04;;;;;;;16.52;3.85;;;;;;;;;;5018171;28;20705;-73
2023/05/26 13:21:30;;;;;;;15.13;3.15;;;;;;;;;;5020060;28;20037;-73
2023/05/26 13:23:56;;;;;;;11.57;2.78;;;;;;;;;;5022621;28;20060;-73
2023/05/26 13:26:23;;;;;;;12.75;3.28;;;;;;;;;;5022008;28;20069;-74
2023/05/26 13:28:50;;;;;;;11.35;3.17;;;;;;;;;;5021201;28;20037;-73
2023/05/26 13:31:15;;;;;;;13.15;2.75;;;;;;;;;;5022114;28;20053;-73
2023/05/26 13:33:41;;;;;;;12.65;3.00;;;;;;;;;;5017758;28;20051;-74
2023/05/26 13:36:08;;;;;;;11.70;2.53;;;;;;;;;;5013282;28;20048;-73
2023/05/26 13:38:34;;;;;;;12.77;2.58;;;;;;;;;;5020780;28;20092;-73
2023/05/26 13:40:59;;;;;;;18.85;2.80;;;;;;;;;;5018968;28;20026;-73
2023/05/26 13:43:25;;;;;;;11.90;3.03;;;;;;;;;;5015643;28;20644;-73
2023/05/26 13:45:50;;;;;;;12.27;2.85;;;;;;;;;;5020264;28;20029;-73
2023/05/26 13:48:16;;;;;;;6.60;2.55;;;;;;;;;;5016800;28;20040;-73
2023/05/26 13:50:41;;;;;;;7.05;2.58;;;;;;;;;;5020934;28;20029;-74
2023/05/26 13:53:07;;;;;;;14.52;2.85;;;;;;;;;;5024517;28;20034;-73
2023/05/26 13:55:32;;;;;;;13.32;3.03;;;;;;;;;;5023892;28;20048;-73
2023/05/26 13:57:58;;;;;;;8.60;2.38;;;;;;;;;;5025182;28;20399;-74
2023/05/26 14:00:24;;;;;;;11.90;3.03;;;;;;;;;;5026218;28;20029;-73
2023/05/26 14:02:50;;;;;;;7.28;2.58;;;;;;;;;;5017960;28;20099;-73
2023/05/26 14:05:18;;;;;;;12.15;2.92;;;;;;;;;;5017462;28;20037;-73
2023/05/26 14:07:43;;;;;;;11.05;3.13;;;;;;;;;;5014738;28;20045;-74
2023/05/26 14:10:09;;;;;;;8.90;3.40;;;;;;;;;;5021672;28;20032;-74
2023/05/26 14:12:34;;;;;;;7.95;2.75;;;;;;;;;;5025035;28;20431;-74
2023/05/26 14:15:00;;;;;;;11.43;3.05;;;;;;;;;;5029158;28;20045;-74
2023/05/26 14:17:25;;;;;;;9.43;2.95;;;;;;;;;;5023158;28;20400;-73
2023/05/26 14:19:50;;;;;;;9.15;2.70;;;;;;;;;;5017998;28;20033;-73
2023/05/26 14:22:16;;;;;;;8.88;2.65;;;;;;;;;;5008102;28;20029;-74
2023/05/26 14:24:42;;;;;;;11.27;2.90;;;;;;;;;;5017652;28;20032;-74
2023/05/26 14:27:08;;;;;;;10.23;3.10;;;;;;;;;;5015314;28;20092;-74
2023/05/26 14:29:33;;;;;;;14.00;2.83;;;;;;;;;;5013250;28;20037;-74